Kent, Ohio
Current Conditions -  °F | °C
As of 12:53 AM on Saturday 20 Dec 2014 (Local Time) from KPOV Reporting Station
NA  
Wind Chill: 28°   Ceiling: NA
Heat Index: 28°   Visibility: 10mi
Dew Point: 19°   Wind: 0mph
Humidity: 70%   Direction: NA
Pressure: 30.25"   Gusts: NA
Location:  41.15°N, 81.36°W
Report Text: KPOV 200553Z AUTO 00000KT 10SM M02/M07 A3025 RMK AO2 T10251073
Loading
Personal Weather Stations






























Interactive Weather Map New forecast layout! Learn more

10-Day Weather Forecast

Advertisements
Track Severe Weather on mobile